sensor_id;sensor_type;location;lat;lon;timestamp;P1;durP1;ratioP1;P2;durP2;ratioP2
3311;SDS011;1668;49.648;8.570;2023-04-26T00:01:56;7.07;;;3.30;;
3311;SDS011;1668;49.648;8.570;2023-04-26T00:04:23;5.57;;;3.07;;
3311;SDS011;1668;49.648;8.570;2023-04-26T00:06:49;4.73;;;2.87;;
3311;SDS011;1668;49.648;8.570;2023-04-26T00:09:18;6.00;;;3.20;;
3311;SDS011;1668;49.648;8.570;2023-04-26T00:11:45;11.53;;;3.70;;
3311;SDS011;1668;49.648;8.570;2023-04-26T00:14:12;5.00;;;2.80;;
3311;SDS011;1668;49.648;8.570;2023-04-26T00:16:39;7.40;;;3.30;;
3311;SDS011;1668;49.648;8.570;2023-04-26T00:19:06;8.00;;;3.37;;
3311;SDS011;1668;49.648;8.570;2023-04-26T00:21:34;8.90;;;3.47;;
3311;SDS011;1668;49.648;8.570;2023-04-26T00:24:02;7.33;;;3.50;;
3311;SDS011;1668;49.648;8.570;2023-04-26T00:26:31;10.27;;;3.57;;
3311;SDS011;1668;49.648;8.570;2023-04-26T00:28:58;8.60;;;3.23;;
3311;SDS011;1668;49.648;8.570;2023-04-26T00:31:26;8.70;;;3.53;;
3311;SDS011;1668;49.648;8.570;2023-04-26T00:33:53;7.10;;;3.17;;
3311;SDS011;1668;49.648;8.570;2023-04-26T00:36:19;6.07;;;3.03;;
3311;SDS011;1668;49.648;8.570;2023-04-26T00:38:46;9.07;;;3.53;;
3311;SDS011;1668;49.648;8.570;2023-04-26T00:41:13;9.90;;;3.40;;
3311;SDS011;1668;49.648;8.570;2023-04-26T00:43:42;5.97;;;3.00;;
3311;SDS011;1668;49.648;8.570;2023-04-26T00:46:09;5.83;;;2.53;;
3311;SDS011;1668;49.648;8.570;2023-04-26T00:48:36;5.83;;;3.33;;
3311;SDS011;1668;49.648;8.570;2023-04-26T00:51:03;6.23;;;3.00;;
3311;SDS011;1668;49.648;8.570;2023-04-26T00:53:31;7.40;;;3.80;;
3311;SDS011;1668;49.648;8.570;2023-04-26T00:55:59;6.47;;;2.90;;
3311;SDS011;1668;49.648;8.570;2023-04-26T00:58:27;8.03;;;3.53;;
3311;SDS011;1668;49.648;8.570;2023-04-26T01:00:56;6.00;;;2.90;;
3311;SDS011;1668;49.648;8.570;2023-04-26T01:03:23;7.10;;;3.43;;
3311;SDS011;1668;49.648;8.570;2023-04-26T01:05:50;5.70;;;2.87;;
3311;SDS011;1668;49.648;8.570;2023-04-26T01:08:18;7.30;;;3.33;;
3311;SDS011;1668;49.648;8.570;2023-04-26T01:10:46;5.90;;;3.13;;
3311;SDS011;1668;49.648;8.570;2023-04-26T01:13:13;5.47;;;3.20;;
3311;SDS011;1668;49.648;8.570;2023-04-26T01:15:42;12.30;;;3.07;;
3311;SDS011;1668;49.648;8.570;2023-04-26T01:18:12;6.73;;;3.17;;
3311;SDS011;1668;49.648;8.570;2023-04-26T01:20:39;5.30;;;3.80;;
3311;SDS011;1668;49.648;8.570;2023-04-26T01:23:08;4.43;;;3.00;;
3311;SDS011;1668;49.648;8.570;2023-04-26T01:25:35;8.23;;;3.87;;
3311;SDS011;1668;49.648;8.570;2023-04-26T01:28:02;7.67;;;3.33;;
3311;SDS011;1668;49.648;8.570;2023-04-26T01:30:29;8.50;;;3.20;;
3311;SDS011;1668;49.648;8.570;2023-04-26T01:32:56;8.53;;;3.57;;
3311;SDS011;1668;49.648;8.570;2023-04-26T01:35:23;4.17;;;2.50;;
3311;SDS011;1668;49.648;8.570;2023-04-26T01:37:50;5.93;;;3.10;;
3311;SDS011;1668;49.648;8.570;2023-04-26T01:40:18;5.10;;;3.13;;
3311;SDS011;1668;49.648;8.570;2023-04-26T01:42:46;8.07;;;3.83;;
3311;SDS011;1668;49.648;8.570;2023-04-26T01:45:13;14.00;;;3.57;;
3311;SDS011;1668;49.648;8.570;2023-04-26T01:47:40;5.10;;;2.60;;
3311;SDS011;1668;49.648;8.570;2023-04-26T01:50:07;6.73;;;3.00;;
3311;SDS011;1668;49.648;8.570;2023-04-26T01:52:35;5.23;;;3.00;;
3311;SDS011;1668;49.648;8.570;2023-04-26T01:55:02;8.03;;;3.33;;
3311;SDS011;1668;49.648;8.570;2023-04-26T01:57:31;6.43;;;3.00;;
3311;SDS011;1668;49.648;8.570;2023-04-26T01:59:58;6.50;;;3.10;;
3311;SDS011;1668;49.648;8.570;2023-04-26T02:02:26;6.07;;;2.70;;
3311;SDS011;1668;49.648;8.570;2023-04-26T02:04:53;4.73;;;2.93;;
3311;SDS011;1668;49.648;8.570;2023-04-26T02:07:20;6.53;;;3.07;;
3311;SDS011;1668;49.648;8.570;2023-04-26T02:09:47;4.57;;;2.90;;
3311;SDS011;1668;49.648;8.570;2023-04-26T02:12:14;7.23;;;3.23;;
3311;SDS011;1668;49.648;8.570;2023-04-26T02:14:42;5.50;;;3.23;;
3311;SDS011;1668;49.648;8.570;2023-04-26T02:17:09;4.70;;;2.70;;
3311;SDS011;1668;49.648;8.570;2023-04-26T02:19:36;7.77;;;3.30;;
3311;SDS011;1668;49.648;8.570;2023-04-26T02:22:03;6.23;;;3.10;;
3311;SDS011;1668;49.648;8.570;2023-04-26T02:24:32;7.90;;;3.50;;
3311;SDS011;1668;49.648;8.570;2023-04-26T02:26:59;12.30;;;3.87;;
3311;SDS011;1668;49.648;8.570;2023-04-26T02:29:28;6.97;;;3.03;;
3311;SDS011;1668;49.648;8.570;2023-04-26T02:31:56;4.37;;;3.07;;
3311;SDS011;1668;49.648;8.570;2023-04-26T02:34:23;6.17;;;3.40;;
3311;SDS011;1668;49.648;8.570;2023-04-26T02:36:50;9.23;;;3.30;;
3311;SDS011;1668;49.648;8.570;2023-04-26T02:39:17;7.17;;;3.10;;
3311;SDS011;1668;49.648;8.570;2023-04-26T02:41:45;6.33;;;2.60;;
3311;SDS011;1668;49.648;8.570;2023-04-26T02:44:12;8.20;;;3.23;;
3311;SDS011;1668;49.648;8.570;2023-04-26T02:46:39;7.50;;;2.80;;
3311;SDS011;1668;49.648;8.570;2023-04-26T02:49:07;9.63;;;3.27;;
3311;SDS011;1668;49.648;8.570;2023-04-26T02:51:34;4.50;;;2.43;;
3311;SDS011;1668;49.648;8.570;2023-04-26T02:54:01;6.70;;;3.00;;
3311;SDS011;1668;49.648;8.570;2023-04-26T02:56:28;4.70;;;3.10;;
3311;SDS011;1668;49.648;8.570;2023-04-26T02:58:55;4.97;;;2.70;;
3311;SDS011;1668;49.648;8.570;2023-04-26T03:01:22;6.80;;;3.03;;
3311;SDS011;1668;49.648;8.570;2023-04-26T03:03:49;4.30;;;2.60;;
3311;SDS011;1668;49.648;8.570;2023-04-26T03:06:18;4.80;;;2.80;;
3311;SDS011;1668;49.648;8.570;2023-04-26T03:08:45;6.13;;;2.60;;
3311;SDS011;1668;49.648;8.570;2023-04-26T03:11:12;7.20;;;2.83;;
3311;SDS011;1668;49.648;8.570;2023-04-26T03:13:39;5.50;;;2.93;;
3311;SDS011;1668;49.648;8.570;2023-04-26T03:16:06;6.97;;;2.87;;
3311;SDS011;1668;49.648;8.570;2023-04-26T03:18:33;4.80;;;3.00;;
3311;SDS011;1668;49.648;8.570;2023-04-26T03:21:00;8.17;;;3.70;;
3311;SDS011;1668;49.648;8.570;2023-04-26T03:23:29;5.73;;;3.27;;
3311;SDS011;1668;49.648;8.570;2023-04-26T03:25:56;5.67;;;3.37;;
3311;SDS011;1668;49.648;8.570;2023-04-26T03:28:23;10.57;;;3.90;;
3311;SDS011;1668;49.648;8.570;2023-04-26T03:30:50;3.80;;;2.97;;
3311;SDS011;1668;49.648;8.570;2023-04-26T03:33:17;4.93;;;2.80;;
3311;SDS011;1668;49.648;8.570;2023-04-26T03:35:52;8.53;;;2.73;;
3311;SDS011;1668;49.648;8.570;2023-04-26T03:38:41;4.83;;;3.70;;
3311;SDS011;1668;49.648;8.570;2023-04-26T03:41:08;7.60;;;3.70;;
3311;SDS011;1668;49.648;8.570;2023-04-26T03:43:35;7.97;;;3.47;;
3311;SDS011;1668;49.648;8.570;2023-04-26T03:46:02;5.17;;;3.17;;
3311;SDS011;1668;49.648;8.570;2023-04-26T03:48:29;5.50;;;3.37;;
3311;SDS011;1668;49.648;8.570;2023-04-26T03:50:56;5.97;;;3.17;;
3311;SDS011;1668;49.648;8.570;2023-04-26T03:53:23;4.90;;;2.90;;
3311;SDS011;1668;49.648;8.570;2023-04-26T03:55:52;8.43;;;3.33;;
3311;SDS011;1668;49.648;8.570;2023-04-26T03:58:19;9.30;;;3.60;;
3311;SDS011;1668;49.648;8.570;2023-04-26T04:00:45;3.80;;;2.67;;
3311;SDS011;1668;49.648;8.570;2023-04-26T04:03:12;4.93;;;2.53;;
3311;SDS011;1668;49.648;8.570;2023-04-26T04:05:40;4.63;;;2.70;;
3311;SDS011;1668;49.648;8.570;2023-04-26T04:08:07;5.27;;;2.60;;
3311;SDS011;1668;49.648;8.570;2023-04-26T04:10:33;3.10;;;2.33;;
3311;SDS011;1668;49.648;8.570;2023-04-26T04:13:03;5.13;;;3.10;;
3311;SDS011;1668;49.648;8.570;2023-04-26T04:15:30;9.67;;;3.00;;
3311;SDS011;1668;49.648;8.570;2023-04-26T04:17:57;9.43;;;3.00;;
3311;SDS011;1668;49.648;8.570;2023-04-26T04:20:24;3.67;;;2.30;;
3311;SDS011;1668;49.648;8.570;2023-04-26T04:22:51;4.23;;;2.60;;
3311;SDS011;1668;49.648;8.570;2023-04-26T04:25:18;6.77;;;2.60;;
3311;SDS011;1668;49.648;8.570;2023-04-26T04:27:46;4.30;;;3.20;;
3311;SDS011;1668;49.648;8.570;2023-04-26T04:30:16;6.30;;;3.43;;
3311;SDS011;1668;49.648;8.570;2023-04-26T04:32:43;7.03;;;3.10;;
3311;SDS011;1668;49.648;8.570;2023-04-26T04:35:11;6.37;;;3.33;;
3311;SDS011;1668;49.648;8.570;2023-04-26T04:37:38;7.10;;;2.93;;
3311;SDS011;1668;49.648;8.570;2023-04-26T04:40:06;8.93;;;3.37;;
3311;SDS011;1668;49.648;8.570;2023-04-26T04:42:35;7.33;;;2.77;;
3311;SDS011;1668;49.648;8.570;2023-04-26T04:45:02;7.17;;;3.07;;
3311;SDS011;1668;49.648;8.570;2023-04-26T04:47:31;4.40;;;2.53;;
3311;SDS011;1668;49.648;8.570;2023-04-26T04:50:02;6.60;;;2.80;;
3311;SDS011;1668;49.648;8.570;2023-04-26T04:52:30;6.60;;;3.17;;
3311;SDS011;1668;49.648;8.570;2023-04-26T04:54:57;5.67;;;3.10;;
3311;SDS011;1668;49.648;8.570;2023-04-26T04:57:24;6.87;;;3.40;;
3311;SDS011;1668;49.648;8.570;2023-04-26T04:59:51;7.50;;;4.70;;
3311;SDS011;1668;49.648;8.570;2023-04-26T05:02:18;6.60;;;3.83;;
3311;SDS011;1668;49.648;8.570;2023-04-26T05:04:46;7.30;;;3.77;;
3311;SDS011;1668;49.648;8.570;2023-04-26T05:07:13;6.30;;;4.17;;
3311;SDS011;1668;49.648;8.570;2023-04-26T05:09:42;6.73;;;4.00;;
3311;SDS011;1668;49.648;8.570;2023-04-26T05:12:09;8.97;;;4.20;;
3311;SDS011;1668;49.648;8.570;2023-04-26T05:14:36;8.63;;;4.37;;
3311;SDS011;1668;49.648;8.570;2023-04-26T05:17:04;6.07;;;3.37;;
3311;SDS011;1668;49.648;8.570;2023-04-26T05:19:31;5.30;;;3.90;;
3311;SDS011;1668;49.648;8.570;2023-04-26T05:22:00;6.00;;;3.80;;
3311;SDS011;1668;49.648;8.570;2023-04-26T05:24:28;6.30;;;3.97;;
3311;SDS011;1668;49.648;8.570;2023-04-26T05:26:56;9.97;;;3.80;;
3311;SDS011;1668;49.648;8.570;2023-04-26T05:29:24;6.17;;;3.80;;
3311;SDS011;1668;49.648;8.570;2023-04-26T05:31:54;4.80;;;3.70;;
3311;SDS011;1668;49.648;8.570;2023-04-26T05:34:21;8.33;;;4.77;;
3311;SDS011;1668;49.648;8.570;2023-04-26T05:36:48;8.73;;;4.20;;
3311;SDS011;1668;49.648;8.570;2023-04-26T05:39:17;5.57;;;3.80;;
3311;SDS011;1668;49.648;8.570;2023-04-26T05:41:45;8.47;;;4.33;;
3311;SDS011;1668;49.648;8.570;2023-04-26T05:44:12;7.73;;;4.33;;
3311;SDS011;1668;49.648;8.570;2023-04-26T05:46:39;9.43;;;4.60;;
3311;SDS011;1668;49.648;8.570;2023-04-26T05:49:06;9.57;;;4.50;;
3311;SDS011;1668;49.648;8.570;2023-04-26T05:51:33;11.10;;;4.40;;
3311;SDS011;1668;49.648;8.570;2023-04-26T05:54:00;5.23;;;3.63;;
3311;SDS011;1668;49.648;8.570;2023-04-26T05:56:29;7.53;;;4.23;;
3311;SDS011;1668;49.648;8.570;2023-04-26T05:58:56;8.73;;;4.30;;
3311;SDS011;1668;49.648;8.570;2023-04-26T06:01:23;9.50;;;4.90;;
3311;SDS011;1668;49.648;8.570;2023-04-26T06:03:50;8.37;;;3.83;;
3311;SDS011;1668;49.648;8.570;2023-04-26T06:06:17;6.83;;;4.00;;
3311;SDS011;1668;49.648;8.570;2023-04-26T06:08:44;7.37;;;4.27;;
3311;SDS011;1668;49.648;8.570;2023-04-26T06:11:11;8.03;;;4.37;;
3311;SDS011;1668;49.648;8.570;2023-04-26T06:13:40;7.30;;;4.43;;
3311;SDS011;1668;49.648;8.570;2023-04-26T06:16:06;7.07;;;4.33;;
3311;SDS011;1668;49.648;8.570;2023-04-26T06:18:33;6.83;;;4.13;;
3311;SDS011;1668;49.648;8.570;2023-04-26T06:21:01;9.17;;;4.67;;
3311;SDS011;1668;49.648;8.570;2023-04-26T06:23:28;9.40;;;4.57;;
3311;SDS011;1668;49.648;8.570;2023-04-26T06:25:55;7.63;;;4.80;;
3311;SDS011;1668;49.648;8.570;2023-04-26T06:28:22;8.90;;;4.67;;
3311;SDS011;1668;49.648;8.570;2023-04-26T06:30:50;7.17;;;4.93;;
3311;SDS011;1668;49.648;8.570;2023-04-26T06:33:17;13.23;;;6.17;;
3311;SDS011;1668;49.648;8.570;2023-04-26T06:35:44;12.93;;;5.30;;
3311;SDS011;1668;49.648;8.570;2023-04-26T06:38:11;9.23;;;5.30;;
3311;SDS011;1668;49.648;8.570;2023-04-26T06:40:37;8.73;;;5.60;;
3311;SDS011;1668;49.648;8.570;2023-04-26T06:43:04;14.00;;;6.13;;
3311;SDS011;1668;49.648;8.570;2023-04-26T06:45:31;10.53;;;5.30;;
3311;SDS011;1668;49.648;8.570;2023-04-26T06:48:00;8.57;;;5.03;;
3311;SDS011;1668;49.648;8.570;2023-04-26T06:50:28;11.17;;;5.27;;
3311;SDS011;1668;49.648;8.570;2023-04-26T06:52:55;8.73;;;5.20;;
3311;SDS011;1668;49.648;8.570;2023-04-26T06:55:22;7.93;;;4.73;;
3311;SDS011;1668;49.648;8.570;2023-04-26T06:57:49;9.20;;;4.60;;
3311;SDS011;1668;49.648;8.570;2023-04-26T07:00:17;7.20;;;4.77;;
3311;SDS011;1668;49.648;8.570;2023-04-26T07:02:44;10.73;;;5.10;;
3311;SDS011;1668;49.648;8.570;2023-04-26T07:05:12;7.50;;;4.40;;
3311;SDS011;1668;49.648;8.570;2023-04-26T07:07:40;11.23;;;5.00;;
3311;SDS011;1668;49.648;8.570;2023-04-26T07:10:07;6.83;;;4.90;;
3311;SDS011;1668;49.648;8.570;2023-04-26T07:12:35;8.30;;;5.23;;
3311;SDS011;1668;49.648;8.570;2023-04-26T07:15:02;13.30;;;5.20;;
3311;SDS011;1668;49.648;8.570;2023-04-26T07:17:30;10.43;;;5.50;;
3311;SDS011;1668;49.648;8.570;2023-04-26T07:19:57;15.97;;;5.67;;
3311;SDS011;1668;49.648;8.570;2023-04-26T07:22:26;9.27;;;5.00;;
3311;SDS011;1668;49.648;8.570;2023-04-26T07:24:53;11.77;;;6.23;;
3311;SDS011;1668;49.648;8.570;2023-04-26T07:27:20;13.67;;;5.97;;
3311;SDS011;1668;49.648;8.570;2023-04-26T07:29:47;7.87;;;5.17;;
3311;SDS011;1668;49.648;8.570;2023-04-26T07:32:14;10.53;;;5.10;;
3311;SDS011;1668;49.648;8.570;2023-04-26T07:34:41;11.90;;;6.10;;
3311;SDS011;1668;49.648;8.570;2023-04-26T07:37:07;10.07;;;5.23;;
3311;SDS011;1668;49.648;8.570;2023-04-26T07:39:36;9.07;;;5.40;;
3311;SDS011;1668;49.648;8.570;2023-04-26T07:42:03;8.83;;;4.70;;
3311;SDS011;1668;49.648;8.570;2023-04-26T07:44:50;10.73;;;5.13;;
3311;SDS011;1668;49.648;8.570;2023-04-26T07:47:31;7.77;;;5.20;;
3311;SDS011;1668;49.648;8.570;2023-04-26T07:49:58;8.23;;;5.13;;
3311;SDS011;1668;49.648;8.570;2023-04-26T07:52:25;8.67;;;4.93;;
3311;SDS011;1668;49.648;8.570;2023-04-26T07:54:53;9.40;;;4.67;;
3311;SDS011;1668;49.648;8.570;2023-04-26T07:57:20;7.50;;;5.07;;
3311;SDS011;1668;49.648;8.570;2023-04-26T07:59:47;7.07;;;5.20;;
3311;SDS011;1668;49.648;8.570;2023-04-26T08:02:14;6.17;;;4.33;;
3311;SDS011;1668;49.648;8.570;2023-04-26T08:04:46;6.57;;;4.50;;
3311;SDS011;1668;49.648;8.570;2023-04-26T08:07:13;9.90;;;5.20;;
3311;SDS011;1668;49.648;8.570;2023-04-26T08:09:41;10.00;;;5.13;;
3311;SDS011;1668;49.648;8.570;2023-04-26T08:12:15;9.43;;;5.27;;
3311;SDS011;1668;49.648;8.570;2023-04-26T08:14:48;14.70;;;6.50;;
3311;SDS011;1668;49.648;8.570;2023-04-26T08:17:17;15.57;;;5.70;;
3311;SDS011;1668;49.648;8.570;2023-04-26T08:19:43;7.60;;;4.97;;
3311;SDS011;1668;49.648;8.570;2023-04-26T08:22:10;7.60;;;4.83;;
3311;SDS011;1668;49.648;8.570;2023-04-26T08:24:37;11.70;;;4.97;;
3311;SDS011;1668;49.648;8.570;2023-04-26T08:27:04;7.63;;;4.60;;
3311;SDS011;1668;49.648;8.570;2023-04-26T08:29:33;10.33;;;5.20;;
3311;SDS011;1668;49.648;8.570;2023-04-26T08:32:00;6.87;;;4.60;;
3311;SDS011;1668;49.648;8.570;2023-04-26T08:34:27;13.73;;;5.70;;
3311;SDS011;1668;49.648;8.570;2023-04-26T08:36:54;9.20;;;5.07;;
3311;SDS011;1668;49.648;8.570;2023-04-26T08:39:23;7.63;;;4.83;;
3311;SDS011;1668;49.648;8.570;2023-04-26T08:41:52;7.40;;;4.30;;
3311;SDS011;1668;49.648;8.570;2023-04-26T08:44:21;7.77;;;3.90;;
3311;SDS011;1668;49.648;8.570;2023-04-26T08:46:55;9.40;;;5.20;;
3311;SDS011;1668;49.648;8.570;2023-04-26T08:49:29;8.67;;;4.60;;
3311;SDS011;1668;49.648;8.570;2023-04-26T08:52:07;6.73;;;4.17;;
3311;SDS011;1668;49.648;8.570;2023-04-26T08:54:35;7.60;;;4.00;;
3311;SDS011;1668;49.648;8.570;2023-04-26T08:57:03;5.77;;;4.10;;
3311;SDS011;1668;49.648;8.570;2023-04-26T08:59:32;9.13;;;5.00;;
3311;SDS011;1668;49.648;8.570;2023-04-26T09:02:21;7.43;;;4.33;;
3311;SDS011;1668;49.648;8.570;2023-04-26T09:04:49;10.50;;;4.33;;
3311;SDS011;1668;49.648;8.570;2023-04-26T09:07:18;10.67;;;4.50;;
3311;SDS011;1668;49.648;8.570;2023-04-26T09:09:47;9.30;;;4.10;;
3311;SDS011;1668;49.648;8.570;2023-04-26T09:12:16;5.53;;;3.83;;
3311;SDS011;1668;49.648;8.570;2023-04-26T09:14:45;7.20;;;3.80;;
3311;SDS011;1668;49.648;8.570;2023-04-26T09:20:00;21.83;;;10.13;;
3311;SDS011;1668;49.648;8.570;2023-04-26T09:22:42;57.40;;;30.67;;
3311;SDS011;1668;49.648;8.570;2023-04-26T09:25:09;18.70;;;10.90;;
3311;SDS011;1668;49.648;8.570;2023-04-26T09:27:38;19.13;;;10.83;;
3311;SDS011;1668;49.648;8.570;2023-04-26T09:30:08;32.83;;;18.93;;
3311;SDS011;1668;49.648;8.570;2023-04-26T09:32:51;12.00;;;7.40;;
3311;SDS011;1668;49.648;8.570;2023-04-26T09:35:24;8.30;;;4.90;;
3311;SDS011;1668;49.648;8.570;2023-04-26T09:37:53;36.63;;;20.33;;
3311;SDS011;1668;49.648;8.570;2023-04-26T09:40:24;27.63;;;14.40;;
3311;SDS011;1668;49.648;8.570;2023-04-26T09:42:58;15.80;;;9.20;;
3311;SDS011;1668;49.648;8.570;2023-04-26T09:45:27;33.13;;;17.70;;
3311;SDS011;1668;49.648;8.570;2023-04-26T09:47:58;23.83;;;13.63;;
3311;SDS011;1668;49.648;8.570;2023-04-26T09:50:40;14.53;;;5.30;;
3311;SDS011;1668;49.648;8.570;2023-04-26T09:53:10;15.47;;;6.40;;
3311;SDS011;1668;49.648;8.570;2023-04-26T09:55:37;11.03;;;5.80;;
3311;SDS011;1668;49.648;8.570;2023-04-26T09:58:08;81.63;;;42.37;;
3311;SDS011;1668;49.648;8.570;2023-04-26T10:00:36;27.27;;;16.27;;
3311;SDS011;1668;49.648;8.570;2023-04-26T10:03:08;27.43;;;14.60;;
3311;SDS011;1668;49.648;8.570;2023-04-26T10:05:35;128.20;;;76.33;;
3311;SDS011;1668;49.648;8.570;2023-04-26T10:08:04;117.07;;;80.30;;
3311;SDS011;1668;49.648;8.570;2023-04-26T10:10:32;30.93;;;18.43;;
3311;SDS011;1668;49.648;8.570;2023-04-26T10:13:00;25.60;;;14.73;;
3311;SDS011;1668;49.648;8.570;2023-04-26T10:15:27;17.30;;;10.27;;
3311;SDS011;1668;49.648;8.570;2023-04-26T10:17:55;17.40;;;9.80;;
3311;SDS011;1668;49.648;8.570;2023-04-26T10:20:25;6.40;;;4.63;;
3311;SDS011;1668;49.648;8.570;2023-04-26T10:22:55;17.27;;;9.90;;
3311;SDS011;1668;49.648;8.570;2023-04-26T10:25:35;25.80;;;18.07;;
3311;SDS011;1668;49.648;8.570;2023-04-26T10:28:03;13.87;;;8.60;;
3311;SDS011;1668;49.648;8.570;2023-04-26T10:30:30;29.37;;;18.80;;
3311;SDS011;1668;49.648;8.570;2023-04-26T10:39:16;11.23;;;6.67;;
3311;SDS011;1668;49.648;8.570;2023-04-26T10:41:44;10.30;;;3.37;;
3311;SDS011;1668;49.648;8.570;2023-04-26T10:47:05;6.73;;;3.47;;
3311;SDS011;1668;49.648;8.570;2023-04-26T10:49:43;7.97;;;4.17;;
3311;SDS011;1668;49.648;8.570;2023-04-26T10:52:15;8.00;;;3.77;;
3311;SDS011;1668;49.648;8.570;2023-04-26T10:54:49;7.90;;;4.63;;
3311;SDS011;1668;49.648;8.570;2023-04-26T10:57:20;7.97;;;3.93;;
3311;SDS011;1668;49.648;8.570;2023-04-26T11:02:43;8.47;;;3.50;;
3311;SDS011;1668;49.648;8.570;2023-04-26T11:05:10;7.50;;;3.80;;
3311;SDS011;1668;49.648;8.570;2023-04-26T11:08:06;6.80;;;2.93;;
3311;SDS011;1668;49.648;8.570;2023-04-26T11:10:36;5.90;;;3.10;;
3311;SDS011;1668;49.648;8.570;2023-04-26T11:13:04;8.07;;;3.50;;
3311;SDS011;1668;49.648;8.570;2023-04-26T11:15:31;9.23;;;3.30;;
3311;SDS011;1668;49.648;8.570;2023-04-26T11:18:00;6.17;;;2.97;;
3311;SDS011;1668;49.648;8.570;2023-04-26T11:20:28;4.90;;;2.60;;
3311;SDS011;1668;49.648;8.570;2023-04-26T11:22:56;7.40;;;2.60;;
3311;SDS011;1668;49.648;8.570;2023-04-26T11:25:25;5.67;;;2.90;;
3311;SDS011;1668;49.648;8.570;2023-04-26T11:27:57;6.87;;;2.77;;
3311;SDS011;1668;49.648;8.570;2023-04-26T11:30:26;9.13;;;2.67;;
3311;SDS011;1668;49.648;8.570;2023-04-26T11:32:54;4.17;;;2.50;;
3311;SDS011;1668;49.648;8.570;2023-04-26T11:35:21;4.90;;;3.13;;
3311;SDS011;1668;49.648;8.570;2023-04-26T11:37:49;4.67;;;2.93;;
3311;SDS011;1668;49.648;8.570;2023-04-26T11:40:17;6.43;;;3.00;;
3311;SDS011;1668;49.648;8.570;2023-04-26T11:42:45;7.23;;;3.40;;
3311;SDS011;1668;49.648;8.570;2023-04-26T11:45:16;7.47;;;3.17;;
3311;SDS011;1668;49.648;8.570;2023-04-26T11:47:43;7.30;;;2.60;;
3311;SDS011;1668;49.648;8.570;2023-04-26T11:50:11;4.10;;;2.33;;
3311;SDS011;1668;49.648;8.570;2023-04-26T11:52:39;4.20;;;2.50;;
3311;SDS011;1668;49.648;8.570;2023-04-26T11:55:07;5.63;;;2.73;;
3311;SDS011;1668;49.648;8.570;2023-04-26T11:57:35;4.63;;;2.30;;
3311;SDS011;1668;49.648;8.570;2023-04-26T12:00:07;5.63;;;2.40;;
3311;SDS011;1668;49.648;8.570;2023-04-26T12:02:36;4.90;;;2.57;;
3311;SDS011;1668;49.648;8.570;2023-04-26T12:05:04;6.20;;;2.07;;
3311;SDS011;1668;49.648;8.570;2023-04-26T12:07:36;5.37;;;2.30;;
3311;SDS011;1668;49.648;8.570;2023-04-26T12:10:13;3.70;;;2.13;;
3311;SDS011;1668;49.648;8.570;2023-04-26T12:12:47;7.97;;;2.63;;
3311;SDS011;1668;49.648;8.570;2023-04-26T12:15:16;6.00;;;2.60;;
3311;SDS011;1668;49.648;8.570;2023-04-26T12:17:51;8.10;;;3.00;;
3311;SDS011;1668;49.648;8.570;2023-04-26T12:20:25;6.00;;;3.00;;
3311;SDS011;1668;49.648;8.570;2023-04-26T12:22:56;6.10;;;2.70;;
3311;SDS011;1668;49.648;8.570;2023-04-26T12:25:27;7.60;;;3.00;;
3311;SDS011;1668;49.648;8.570;2023-04-26T12:27:54;7.70;;;2.73;;
3311;SDS011;1668;49.648;8.570;2023-04-26T12:30:23;5.37;;;2.60;;
3311;SDS011;1668;49.648;8.570;2023-04-26T12:32:51;5.47;;;2.60;;
3311;SDS011;1668;49.648;8.570;2023-04-26T12:35:18;9.27;;;3.30;;
3311;SDS011;1668;49.648;8.570;2023-04-26T12:37:45;4.70;;;3.37;;
3311;SDS011;1668;49.648;8.570;2023-04-26T12:40:13;4.30;;;3.20;;
3311;SDS011;1668;49.648;8.570;2023-04-26T12:42:43;7.90;;;3.27;;
3311;SDS011;1668;49.648;8.570;2023-04-26T12:45:10;6.87;;;2.93;;
3311;SDS011;1668;49.648;8.570;2023-04-26T12:47:39;6.43;;;3.13;;
3311;SDS011;1668;49.648;8.570;2023-04-26T12:50:06;5.53;;;2.90;;
3311;SDS011;1668;49.648;8.570;2023-04-26T12:52:36;5.40;;;2.80;;
3311;SDS011;1668;49.648;8.570;2023-04-26T12:55:03;9.23;;;3.00;;
3311;SDS011;1668;49.648;8.570;2023-04-26T12:57:31;5.03;;;2.73;;
3311;SDS011;1668;49.648;8.570;2023-04-26T12:59:58;5.00;;;3.07;;
3311;SDS011;1668;49.648;8.570;2023-04-26T13:02:25;4.87;;;2.40;;
3311;SDS011;1668;49.648;8.570;2023-04-26T13:04:54;7.67;;;3.00;;
3311;SDS011;1668;49.648;8.570;2023-04-26T13:07:21;5.23;;;2.90;;
3311;SDS011;1668;49.648;8.570;2023-04-26T13:09:48;7.17;;;3.00;;
3311;SDS011;1668;49.648;8.570;2023-04-26T13:12:15;7.40;;;3.13;;
3311;SDS011;1668;49.648;8.570;2023-04-26T13:14:42;4.20;;;2.93;;
3311;SDS011;1668;49.648;8.570;2023-04-26T13:17:09;6.13;;;2.90;;
3311;SDS011;1668;49.648;8.570;2023-04-26T13:19:36;7.97;;;2.90;;
3311;SDS011;1668;49.648;8.570;2023-04-26T13:22:04;6.37;;;3.40;;
3311;SDS011;1668;49.648;8.570;2023-04-26T13:24:32;10.10;;;5.60;;
3311;SDS011;1668;49.648;8.570;2023-04-26T13:27:00;13.73;;;8.83;;
3311;SDS011;1668;49.648;8.570;2023-04-26T13:29:27;17.83;;;11.50;;
3311;SDS011;1668;49.648;8.570;2023-04-26T13:31:55;62.03;;;43.33;;
3311;SDS011;1668;49.648;8.570;2023-04-26T13:34:23;30.90;;;20.13;;
3311;SDS011;1668;49.648;8.570;2023-04-26T13:36:50;11.97;;;6.37;;
3311;SDS011;1668;49.648;8.570;2023-04-26T13:39:19;8.47;;;3.77;;
3311;SDS011;1668;49.648;8.570;2023-04-26T13:41:46;5.60;;;3.00;;
3311;SDS011;1668;49.648;8.570;2023-04-26T13:44:13;10.13;;;3.50;;
3311;SDS011;1668;49.648;8.570;2023-04-26T13:46:40;6.80;;;3.10;;
3311;SDS011;1668;49.648;8.570;2023-04-26T13:49:07;4.83;;;2.90;;
3311;SDS011;1668;49.648;8.570;2023-04-26T13:51:35;5.83;;;2.63;;
3311;SDS011;1668;49.648;8.570;2023-04-26T13:54:02;4.43;;;2.93;;
3311;SDS011;1668;49.648;8.570;2023-04-26T13:56:32;6.77;;;3.00;;
3311;SDS011;1668;49.648;8.570;2023-04-26T13:58:59;6.57;;;2.87;;
3311;SDS011;1668;49.648;8.570;2023-04-26T14:01:29;7.13;;;4.00;;
3311;SDS011;1668;49.648;8.570;2023-04-26T14:03:56;17.70;;;10.90;;
3311;SDS011;1668;49.648;8.570;2023-04-26T14:06:23;12.97;;;5.40;;
3311;SDS011;1668;49.648;8.570;2023-04-26T14:08:51;11.67;;;5.87;;
3311;SDS011;1668;49.648;8.570;2023-04-26T14:11:18;29.73;;;21.13;;
3311;SDS011;1668;49.648;8.570;2023-04-26T14:13:46;15.90;;;11.27;;
3311;SDS011;1668;49.648;8.570;2023-04-26T14:16:14;11.53;;;7.97;;
3311;SDS011;1668;49.648;8.570;2023-04-26T14:18:41;5.47;;;4.03;;
3311;SDS011;1668;49.648;8.570;2023-04-26T14:21:09;8.07;;;5.50;;
3311;SDS011;1668;49.648;8.570;2023-04-26T14:23:36;6.80;;;3.60;;
3311;SDS011;1668;49.648;8.570;2023-04-26T14:26:03;5.47;;;3.13;;
3311;SDS011;1668;49.648;8.570;2023-04-26T14:28:31;12.87;;;4.30;;
3311;SDS011;1668;49.648;8.570;2023-04-26T14:30:59;7.97;;;3.70;;
3311;SDS011;1668;49.648;8.570;2023-04-26T14:33:26;5.20;;;2.97;;
3311;SDS011;1668;49.648;8.570;2023-04-26T14:35:53;5.37;;;2.40;;
3311;SDS011;1668;49.648;8.570;2023-04-26T14:38:21;5.77;;;2.63;;
3311;SDS011;1668;49.648;8.570;2023-04-26T14:40:48;7.80;;;3.20;;
3311;SDS011;1668;49.648;8.570;2023-04-26T14:43:15;7.00;;;2.60;;
3311;SDS011;1668;49.648;8.570;2023-04-26T14:45:42;6.43;;;2.90;;
3311;SDS011;1668;49.648;8.570;2023-04-26T14:48:11;3.97;;;2.33;;
3311;SDS011;1668;49.648;8.570;2023-04-26T14:50:38;11.23;;;3.77;;
3311;SDS011;1668;49.648;8.570;2023-04-26T14:53:05;5.10;;;2.90;;
3311;SDS011;1668;49.648;8.570;2023-04-26T14:55:32;7.57;;;3.07;;
3311;SDS011;1668;49.648;8.570;2023-04-26T14:57:58;6.07;;;2.87;;
3311;SDS011;1668;49.648;8.570;2023-04-26T15:00:27;4.33;;;2.30;;
3311;SDS011;1668;49.648;8.570;2023-04-26T15:02:54;4.30;;;2.27;;
3311;SDS011;1668;49.648;8.570;2023-04-26T15:05:24;7.13;;;3.10;;
3311;SDS011;1668;49.648;8.570;2023-04-26T15:07:51;6.07;;;2.67;;
3311;SDS011;1668;49.648;8.570;2023-04-26T15:10:18;13.00;;;2.83;;
3311;SDS011;1668;49.648;8.570;2023-04-26T15:12:46;5.80;;;2.73;;
3311;SDS011;1668;49.648;8.570;2023-04-26T15:15:13;6.30;;;2.30;;
3311;SDS011;1668;49.648;8.570;2023-04-26T15:17:40;4.37;;;1.93;;
3311;SDS011;1668;49.648;8.570;2023-04-26T15:20:07;6.37;;;2.27;;
3311;SDS011;1668;49.648;8.570;2023-04-26T15:22:36;3.70;;;2.30;;
3311;SDS011;1668;49.648;8.570;2023-04-26T15:25:03;5.23;;;2.40;;
3311;SDS011;1668;49.648;8.570;2023-04-26T15:27:33;6.30;;;2.40;;
3311;SDS011;1668;49.648;8.570;2023-04-26T15:30:00;3.87;;;2.23;;
3311;SDS011;1668;49.648;8.570;2023-04-26T15:32:29;5.80;;;2.67;;
3311;SDS011;1668;49.648;8.570;2023-04-26T15:34:56;5.13;;;2.10;;